Folla — LLPD — position and weather

sailwx.info

Track history (hours):
 
Tides and Currents Weather Stations Pressure Air Temp Water Temp Dewpoint Dewpoint Depression Visibility Wind Speed Wind Dir Waves Ship Positions

Folla

Last reported at 2015-Feb-27 01:32 UTC. Time now 2015-Feb-27 06:05 UTC.
Position N 69°35' E 018°51'.

Length 52 m; draft 5 m.

Type: Cargo ship. MMSI: 258253000.

Date/timePositionNaut miles runAvg speedWind from/ knotsBaromVisibWave heightAir tempDewpointWater temp
2015-Feb-27 01:32N 69°35' E 018°51'6 6.0
2015-Feb-27 00:34N 69°41' E 018°59'1 0.9
2015-Feb-26 23:33N 69°40' E 018°58'233 6.4
2015-Feb-25 11:21N 66°33' E 012°45'911.3
2015-Feb-25 10:33N 66°24' E 012°45'5 4.8
2015-Feb-25 09:33N 66°25' E 012°33'5 5.2
2015-Feb-25 08:33N 66°22' E 012°22'9 9.1
2015-Feb-25 07:32N 66°14' E 012°35'74 9.3
2015-Feb-24 23:31N 65°03' E 011°44'1010.8
2015-Feb-24 22:33N 64°56' E 011°26'6 6.4
2015-Feb-24 21:33N 64°52' E 011°15'7 6.9
2015-Feb-24 20:31N 64°46' E 011°06'73 2.8
2015-Feb-23 18:15N 63°47' E 009°27'1111.1
2015-Feb-23 17:17N 63°42' E 009°05'  
Track history (hours):
 
Tides and Currents Weather Stations Pressure Air Temp Water Temp Dewpoint Dewpoint Depression Visibility Wind Speed Wind Dir Waves Ship Positions

Folla

Last reported at 2015-Feb-27 01:32 UTC. Time now 2015-Feb-27 06:05 UTC.
Position N 69°35' E 018°51'.

Length 52 m; draft 5 m.

Type: Cargo ship. MMSI: 258253000.

Date/timePositionNaut miles runAvg speedWind from/ knotsBaromVisibWave heightAir tempDewpointWater temp
2015-Feb-27 01:32N 69°35' E 018°51'6 6.0
2015-Feb-27 00:34N 69°41' E 018°59'1 0.9
2015-Feb-26 23:33N 69°40' E 018°58'233 6.4
2015-Feb-25 11:21N 66°33' E 012°45'911.3
2015-Feb-25 10:33N 66°24' E 012°45'5 4.8
2015-Feb-25 09:33N 66°25' E 012°33'5 5.2
2015-Feb-25 08:33N 66°22' E 012°22'9 9.1
2015-Feb-25 07:32N 66°14' E 012°35'74 9.3
2015-Feb-24 23:31N 65°03' E 011°44'1010.8
2015-Feb-24 22:33N 64°56' E 011°26'6 6.4
2015-Feb-24 21:33N 64°52' E 011°15'7 6.9
2015-Feb-24 20:31N 64°46' E 011°06'73 2.8
2015-Feb-23 18:15N 63°47' E 009°27'1111.1
2015-Feb-23 17:17N 63°42' E 009°05'  

Dump ship's entire track history